createdAt,value
2022-09-30T00:00:39.952Z,99321.16
2022-09-30T00:05:41.353Z,99329.59
2022-09-30T00:10:42.648Z,99344.97
2022-09-30T00:15:47.036Z,99334.72
2022-09-30T00:20:48.414Z,99339.38
2022-09-30T00:25:50.535Z,99335.50
2022-09-30T00:30:51.841Z,99338.06
2022-09-30T00:35:53.193Z,99332.88
2022-09-30T00:40:56.119Z,99342.41
2022-09-30T00:45:59.772Z,99349.78
2022-09-30T00:51:02.708Z,99354.13
2022-09-30T00:56:11.928Z,99350.91
2022-09-30T01:01:14.106Z,99370.25
2022-09-30T01:06:16.938Z,99357.81
2022-09-30T01:11:18.996Z,99356.00
2022-09-30T01:16:47.975Z,99347.91
2022-09-30T01:22:22.428Z,99361.31
2022-09-30T01:27:46.784Z,99370.25
2022-09-30T01:33:15.058Z,99366.75
2022-09-30T01:38:46.845Z,99358.78
2022-09-30T01:44:00.855Z,99356.25
2022-09-30T01:49:25.466Z,99370.78
2022-09-30T01:54:39.869Z,99381.81
2022-09-30T02:00:00.383Z,99368.25
2022-09-30T02:05:20.675Z,99373.03
2022-09-30T02:10:34.481Z,99378.19
2022-09-30T02:15:42.980Z,99380.06
2022-09-30T02:20:45.385Z,99389.59
2022-09-30T02:26:05.907Z,99386.66
2022-09-30T02:31:11.027Z,99381.06
2022-09-30T02:36:25.204Z,99386.50
2022-09-30T02:41:29.802Z,99388.19
2022-09-30T02:46:40.145Z,99392.66
2022-09-30T02:51:53.336Z,99408.47
2022-09-30T02:57:18.802Z,99403.84
2022-09-30T03:02:22.767Z,99423.84
2022-09-30T03:07:24.434Z,99428.00
2022-09-30T03:12:43.703Z,99435.13
2022-09-30T03:18:22.542Z,99430.09
2022-09-30T03:23:43.098Z,99433.28
2022-09-30T03:28:56.311Z,99433.88
2022-09-30T03:34:27.588Z,99432.81
2022-09-30T03:39:52.807Z,99427.72
2022-09-30T03:45:21.228Z,99432.13
2022-09-30T03:50:27.148Z,99437.91
2022-09-30T03:55:28.465Z,99435.34
2022-09-30T04:00:32.461Z,99436.19
2022-09-30T04:05:33.983Z,99433.59
2022-09-30T04:10:35.429Z,99436.53
2022-09-30T04:15:37.213Z,99463.47
2022-09-30T04:20:39.301Z,99459.00
2022-09-30T04:25:40.581Z,99469.53
2022-09-30T04:30:41.926Z,99472.38
2022-09-30T04:35:43.309Z,99468.63
2022-09-30T04:40:44.581Z,99478.63
2022-09-30T04:45:46.520Z,99484.03
2022-09-30T04:50:48.992Z,99478.63
2022-09-30T04:55:50.781Z,99489.78
2022-09-30T05:00:52.421Z,99491.50
2022-09-30T05:05:53.819Z,99494.97
2022-09-30T05:11:00.556Z,99500.50
2022-09-30T05:16:02.836Z,99509.19
2022-09-30T05:21:04.498Z,99521.38
2022-09-30T05:26:11.102Z,99525.03
2022-09-30T05:31:13.635Z,99528.13
2022-09-30T05:36:16.258Z,99531.91
2022-09-30T05:41:20.879Z,99540.72
2022-09-30T05:46:22.313Z,99555.53
2022-09-30T05:51:24.007Z,99568.63
2022-09-30T05:56:25.543Z,99588.09
2022-09-30T06:01:27.029Z,99602.13
2022-09-30T06:06:28.707Z,99601.16
2022-09-30T06:11:29.991Z,99606.94
2022-09-30T06:16:32.051Z,99609.22
2022-09-30T06:21:33.550Z,99606.72
2022-09-30T06:26:35.021Z,99616.09
2022-09-30T06:31:36.564Z,99623.41
2022-09-30T06:36:37.988Z,99625.03
2022-09-30T06:42:26.103Z,99618.28
2022-09-30T06:47:27.443Z,99616.38
2022-09-30T06:52:28.737Z,99618.50
2022-09-30T06:57:30.120Z,99624.16
2022-09-30T07:02:32.131Z,99619.44
2022-09-30T07:07:34.624Z,99641.06
2022-09-30T07:12:36.397Z,99636.31
2022-09-30T07:17:37.656Z,99647.78
2022-09-30T07:22:39.982Z,99631.84
2022-09-30T07:27:41.329Z,99636.47
2022-09-30T07:32:43.228Z,99645.28
2022-09-30T07:37:44.846Z,99660.13
2022-09-30T07:42:46.328Z,99652.28
2022-09-30T07:47:53.239Z,99664.16
2022-09-30T07:52:55.920Z,99667.38
2022-09-30T07:57:57.299Z,99673.75
2022-09-30T08:02:58.569Z,99690.25
2022-09-30T08:08:00.104Z,99678.88
2022-09-30T08:13:18.593Z,99690.69
2022-09-30T08:18:20.075Z,99695.06
2022-09-30T08:23:24.449Z,99694.69
2022-09-30T08:28:37.270Z,99707.38
2022-09-30T08:33:47.210Z,99711.25
2022-09-30T08:38:49.891Z,99713.81
2022-09-30T08:44:28.842Z,99726.31
2022-09-30T08:49:36.543Z,99715.19
2022-09-30T08:54:43.211Z,99704.75
2022-09-30T08:59:47.969Z,99699.91
2022-09-30T09:04:52.561Z,99697.75
2022-09-30T09:10:05.976Z,99704.91
2022-09-30T09:15:33.611Z,99703.59
2022-09-30T09:20:56.753Z,99703.38
2022-09-30T09:25:58.664Z,99703.09
2022-09-30T09:31:00.666Z,99709.06
2022-09-30T09:36:27.633Z,99712.66
2022-09-30T09:41:57.221Z,99713.41
2022-09-30T09:47:05.579Z,99707.69
2022-09-30T09:52:12.913Z,99712.19
2022-09-30T09:57:31.160Z,99707.69
2022-09-30T10:02:32.661Z,99702.78
2022-09-30T10:07:34.416Z,99707.66
2022-09-30T10:12:35.793Z,99717.38
2022-09-30T10:17:38.287Z,99717.81
2022-09-30T10:22:39.931Z,99705.84
2022-09-30T10:27:50.944Z,99697.47
2022-09-30T10:32:52.381Z,99699.00
2022-09-30T10:37:54.771Z,99683.31
2022-09-30T10:42:57.425Z,99689.84
2022-09-30T10:48:06.820Z,99681.94
2022-09-30T10:53:29.697Z,99680.94
2022-09-30T10:58:47.660Z,99676.25
2022-09-30T11:04:03.675Z,99674.75
2022-09-30T11:09:13.848Z,99668.25
2022-09-30T11:14:31.937Z,99671.00
2022-09-30T11:19:40.950Z,99659.44
2022-09-30T11:24:45.173Z,99659.88
2022-09-30T11:29:54.501Z,99650.72
2022-09-30T11:35:41.539Z,99654.47
2022-09-30T11:40:42.753Z,99655.88
2022-09-30T11:45:44.066Z,99648.25
2022-09-30T11:50:56.206Z,99649.00
2022-09-30T11:56:26.584Z,99647.16
2022-09-30T12:01:38.038Z,99655.53
2022-09-30T12:06:45.721Z,99650.78
2022-09-30T12:11:55.632Z,99660.13
2022-09-30T12:16:59.721Z,99654.06
2022-09-30T12:22:12.362Z,99645.88
2022-09-30T12:27:24.676Z,99649.72
2022-09-30T12:32:58.689Z,99652.25
2022-09-30T12:38:27.830Z,99652.00
2022-09-30T12:43:40.024Z,99662.34
2022-09-30T12:48:47.586Z,99655.22
2022-09-30T12:53:56.685Z,99662.66
2022-09-30T12:59:00.412Z,99651.13
2022-09-30T13:04:01.619Z,99656.78
2022-09-30T13:09:18.112Z,99654.31
2022-09-30T13:14:40.121Z,99652.75
2022-09-30T13:19:51.288Z,99650.06
2022-09-30T13:25:04.729Z,99644.66
2022-09-30T13:30:18.195Z,99629.53
2022-09-30T13:35:41.638Z,99646.16
2022-09-30T13:41:04.441Z,99644.31
2022-09-30T13:46:35.448Z,99641.88
2022-09-30T13:51:40.105Z,99645.34
2022-09-30T13:56:42.974Z,99640.38
2022-09-30T14:02:22.158Z,99642.91
2022-09-30T14:07:42.160Z,99632.78
2022-09-30T14:12:51.976Z,99634.81
2022-09-30T14:18:08.538Z,99634.97
2022-09-30T14:23:14.953Z,99627.03
2022-09-30T14:28:29.552Z,99630.03
2022-09-30T14:33:31.608Z,99627.22
2022-09-30T14:38:33.952Z,99635.28
2022-09-30T14:43:42.860Z,99648.31
2022-09-30T14:48:45.792Z,99629.59
2022-09-30T14:53:55.062Z,99631.78
2022-09-30T14:58:59.620Z,99629.53
2022-09-30T15:04:13.950Z,99636.78
2022-09-30T15:09:24.906Z,99632.88
2022-09-30T15:14:26.373Z,99624.06
2022-09-30T15:19:33.886Z,99623.72
2022-09-30T15:24:36.547Z,99623.94
2022-09-30T15:29:37.913Z,99623.81
2022-09-30T15:34:39.207Z,99626.28
2022-09-30T15:40:04.498Z,99607.19
2022-09-30T15:45:35.046Z,99603.25
2022-09-30T15:50:39.107Z,99614.28
2022-09-30T15:55:45.454Z,99620.75
2022-09-30T16:00:47.855Z,99620.56
2022-09-30T16:05:53.785Z,99614.44
2022-09-30T16:10:58.288Z,99613.22
2022-09-30T16:16:02.105Z,99614.41
2022-09-30T16:21:05.336Z,99615.59
2022-09-30T16:26:33.720Z,99617.75
2022-09-30T16:31:35.480Z,99633.41
2022-09-30T16:36:36.775Z,99621.25
2022-09-30T16:41:38.218Z,99615.09
2022-09-30T16:46:39.846Z,99625.19
2022-09-30T16:51:42.030Z,99628.47
2022-09-30T16:56:44.624Z,99634.69
2022-09-30T17:01:46.000Z,99636.22
2022-09-30T17:06:47.449Z,99628.69
2022-09-30T17:11:50.285Z,99627.59
2022-09-30T17:16:52.146Z,99638.19
2022-09-30T17:21:53.437Z,99643.56
2022-09-30T17:26:54.694Z,99645.63
2022-09-30T17:31:56.082Z,99643.81
2022-09-30T17:36:57.497Z,99644.84
2022-09-30T17:42:17.590Z,99648.06
2022-09-30T17:47:18.863Z,99655.31
2022-09-30T17:52:21.096Z,99659.31
2022-09-30T17:57:22.590Z,99664.22
2022-09-30T18:02:25.670Z,99674.09
2022-09-30T18:07:27.856Z,99680.97
2022-09-30T18:12:29.136Z,99673.28
2022-09-30T18:17:30.933Z,99682.31
2022-09-30T18:22:32.235Z,99691.72
2022-09-30T18:27:33.906Z,99674.78
2022-09-30T18:32:35.271Z,99682.50
2022-09-30T18:37:36.532Z,99684.50
2022-09-30T18:42:38.008Z,99691.38
2022-09-30T18:47:42.375Z,99687.66
2022-09-30T18:52:43.719Z,99667.72
2022-09-30T18:57:48.236Z,99661.84
2022-09-30T19:02:51.589Z,99675.88
2022-09-30T19:07:53.802Z,99673.81
2022-09-30T19:12:55.537Z,99669.16
2022-09-30T19:17:57.402Z,99673.66
2022-09-30T19:22:58.743Z,99675.50
2022-09-30T19:28:00.489Z,99679.16
2022-09-30T19:33:01.946Z,99683.81
2022-09-30T19:38:04.181Z,99679.09
2022-09-30T19:43:07.050Z,99696.16
2022-09-30T19:48:08.433Z,99691.41
2022-09-30T19:53:10.941Z,99694.72
2022-09-30T19:58:14.268Z,99685.69
2022-09-30T20:03:15.534Z,99683.88
2022-09-30T20:08:18.801Z,99694.59
2022-09-30T20:13:20.239Z,99704.75
2022-09-30T20:18:21.608Z,99704.56
2022-09-30T20:23:24.652Z,99698.81
2022-09-30T20:28:26.044Z,99711.88
2022-09-30T20:33:27.413Z,99708.34
2022-09-30T20:38:28.727Z,99704.28
2022-09-30T20:43:31.543Z,99710.53
2022-09-30T20:48:34.451Z,99715.75
2022-09-30T20:53:39.253Z,99724.31
2022-09-30T20:58:41.432Z,99729.41
2022-09-30T21:03:44.727Z,99734.22
2022-09-30T21:08:46.395Z,99734.75
2022-09-30T21:13:50.658Z,99735.44
2022-09-30T21:18:53.040Z,99729.72
2022-09-30T21:23:59.165Z,99729.88
2022-09-30T21:29:01.984Z,99731.09
2022-09-30T21:34:03.981Z,99716.28
2022-09-30T21:39:06.304Z,99716.31
2022-09-30T21:44:07.613Z,99711.88
2022-09-30T21:49:23.726Z,99705.78
2022-09-30T21:54:25.123Z,99697.25
2022-09-30T21:59:26.561Z,99705.88
2022-09-30T22:04:27.923Z,99702.25
2022-09-30T22:09:29.237Z,99695.19
2022-09-30T22:14:30.512Z,99691.31
2022-09-30T22:19:31.804Z,99693.84
2022-09-30T22:24:33.112Z,99690.56
2022-09-30T22:29:35.346Z,99686.41
2022-09-30T22:34:55.532Z,99679.59
2022-09-30T22:40:00.729Z,99681.75
2022-09-30T22:45:03.579Z,99671.56
2022-09-30T22:50:05.191Z,99678.19
2022-09-30T22:55:06.732Z,99670.88
2022-09-30T23:00:08.487Z,99667.38
2022-09-30T23:05:09.847Z,99662.03
2022-09-30T23:10:11.216Z,99663.63
2022-09-30T23:15:12.707Z,99659.56
2022-09-30T23:20:13.957Z,99669.91
2022-09-30T23:25:15.378Z,99678.84
2022-09-30T23:30:16.858Z,99667.13
2022-09-30T23:35:18.184Z,99672.16
2022-09-30T23:40:19.583Z,99665.50
2022-09-30T23:45:20.994Z,99670.31
2022-09-30T23:50:22.314Z,99674.81
2022-09-30T23:55:23.728Z,99660.09
